createdAt,value
2022-07-31T00:01:43.172Z,100082.93
2022-07-31T00:04:13.943Z,100081.81
2022-07-31T00:06:44.333Z,100075.43
2022-07-31T00:09:45.331Z,100078.47
2022-07-31T00:11:47.152Z,100078.47
2022-07-31T00:14:17.713Z,100060.23
2022-07-31T00:16:48.510Z,100060.23
2022-07-31T00:19:18.883Z,100055.41
2022-07-31T00:21:49.349Z,100067.53
2022-07-31T00:24:19.795Z,100071.30
2022-07-31T00:26:52.909Z,100069.20
2022-07-31T00:29:22.213Z,100069.20
2022-07-31T00:31:55.054Z,100070.40
2022-07-31T00:34:25.433Z,100071.20
2022-07-31T00:36:55.912Z,100070.56
2022-07-31T00:39:26.293Z,100067.11
2022-07-31T00:41:56.723Z,100063.46
2022-07-31T00:44:27.130Z,100059.55
2022-07-31T00:46:57.453Z,100044.91
2022-07-31T00:49:37.544Z,100049.38
2022-07-31T00:52:00.144Z,100049.38
2022-07-31T00:54:30.910Z,100041.84
2022-07-31T00:57:02.060Z,100047.30
2022-07-31T00:59:32.885Z,100039.92
2022-07-31T01:02:03.702Z,100039.92
2022-07-31T01:04:34.138Z,100039.53
2022-07-31T01:07:06.763Z,100037.72
2022-07-31T01:09:37.646Z,100041.20
2022-07-31T01:12:50.903Z,100028.20
2022-07-31T01:15:21.641Z,100038.64
2022-07-31T01:17:53.878Z,100038.64
2022-07-31T01:20:26.058Z,100026.70
2022-07-31T01:23:11.359Z,100023.21
2022-07-31T01:25:59.562Z,100023.21
2022-07-31T01:28:50.416Z,100023.09
2022-07-31T01:31:28.900Z,100018.95
2022-07-31T01:34:18.412Z,100008.22
2022-07-31T01:36:51.654Z,100009.96
2022-07-31T01:39:22.930Z,100009.96
2022-07-31T01:41:55.013Z,100010.84
2022-07-31T01:44:27.485Z,100008.34
2022-07-31T01:46:58.628Z,100008.34
2022-07-31T01:49:30.373Z,99991.90
2022-07-31T01:52:04.518Z,99998.94
2022-07-31T01:54:36.848Z,99993.95
2022-07-31T01:57:09.878Z,99999.95
2022-07-31T01:59:44.715Z,99999.95
2022-07-31T02:02:15.761Z,100000.31
2022-07-31T02:04:48.179Z,100001.38
2022-07-31T02:07:20.223Z,99995.75
2022-07-31T02:09:58.533Z,100006.58
2022-07-31T02:12:33.821Z,100003.08
2022-07-31T02:14:58.998Z,100003.08
2022-07-31T02:17:29.727Z,100010.37
2022-07-31T02:20:01.959Z,100010.37
2022-07-31T02:22:33.677Z,100003.91
2022-07-31T02:25:06.100Z,100000.30
2022-07-31T02:27:59.155Z,99996.05
2022-07-31T02:30:39.261Z,99996.05
2022-07-31T02:33:07.320Z,99993.41
2022-07-31T02:35:45.074Z,99995.95
2022-07-31T02:38:23.272Z,99996.55
2022-07-31T02:41:00.140Z,99992.33
2022-07-31T02:43:33.398Z,99996.45
2022-07-31T02:46:05.196Z,99997.53
2022-07-31T02:48:36.373Z,99997.53
2022-07-31T02:51:07.180Z,100001.11
2022-07-31T02:53:38.647Z,99997.86
2022-07-31T02:56:09.479Z,99997.86
2022-07-31T02:58:42.877Z,99994.11
2022-07-31T03:01:16.138Z,99995.69
2022-07-31T03:03:49.566Z,99998.04
2022-07-31T03:06:20.402Z,99998.04
2022-07-31T03:08:51.230Z,99995.05
2022-07-31T03:11:24.274Z,99986.49
2022-07-31T03:14:04.490Z,99993.56
2022-07-31T03:16:36.384Z,99993.56
2022-07-31T03:19:08.631Z,99994.39
2022-07-31T03:21:59.768Z,99986.09
2022-07-31T03:24:30.584Z,99988.83
2022-07-31T03:27:01.576Z,99998.68
2022-07-31T03:29:43.788Z,99991.86
2022-07-31T03:32:14.824Z,99988.61
2022-07-31T03:34:45.190Z,99994.45
2022-07-31T03:37:15.648Z,99994.45
2022-07-31T03:39:46.021Z,99998.68
2022-07-31T03:42:19.213Z,99985.47
2022-07-31T03:44:49.708Z,99989.17
2022-07-31T03:47:20.544Z,99989.17
2022-07-31T03:49:51.378Z,99994.77
2022-07-31T03:52:22.168Z,100001.55
2022-07-31T03:54:54.622Z,100001.55
2022-07-31T03:57:45.402Z,100000.89
2022-07-31T04:00:18.017Z,100000.89
2022-07-31T04:02:48.908Z,99999.04
2022-07-31T04:05:19.296Z,99999.04
2022-07-31T04:07:50.766Z,99994.44
2022-07-31T04:10:23.458Z,99985.98
2022-07-31T04:12:54.707Z,99998.91
2022-07-31T04:15:25.557Z,99974.30
2022-07-31T04:17:56.362Z,100000.51
2022-07-31T04:20:26.731Z,100005.03
2022-07-31T04:22:57.139Z,100005.03
2022-07-31T04:25:28.440Z,100007.37
2022-07-31T04:28:01.089Z,100007.37
2022-07-31T04:30:31.835Z,100007.17
2022-07-31T04:33:02.381Z,100002.72
2022-07-31T04:35:33.342Z,100002.72
2022-07-31T04:38:03.806Z,99999.52
2022-07-31T04:40:34.744Z,100006.81
2022-07-31T04:43:05.935Z,100001.82
2022-07-31T04:45:36.800Z,100001.82
2022-07-31T04:48:07.507Z,100006.08
2022-07-31T04:50:38.068Z,100000.47
2022-07-31T04:53:08.492Z,99993.80
2022-07-31T04:55:40.954Z,99993.80
2022-07-31T04:58:11.006Z,100004.50
2022-07-31T05:00:41.754Z,100004.50
2022-07-31T05:03:18.408Z,100010.88
2022-07-31T05:05:48.937Z,100010.88
2022-07-31T05:08:19.610Z,100007.77
2022-07-31T05:10:50.002Z,100007.77
2022-07-31T05:13:20.499Z,100006.33
2022-07-31T05:15:51.079Z,100001.48
2022-07-31T05:18:21.528Z,100001.48
2022-07-31T05:20:51.923Z,100007.34
2022-07-31T05:23:22.372Z,100007.34
2022-07-31T05:25:52.704Z,100012.06
2022-07-31T05:28:29.583Z,100008.27
2022-07-31T05:30:56.868Z,100000.89
2022-07-31T05:33:27.980Z,100000.55
2022-07-31T05:36:03.709Z,100004.20
2022-07-31T05:38:40.391Z,100003.47
2022-07-31T05:41:14.237Z,100006.97
2022-07-31T05:43:44.821Z,100006.97
2022-07-31T05:46:15.202Z,100002.05
2022-07-31T05:48:46.375Z,100004.62
2022-07-31T05:51:16.814Z,100004.62
2022-07-31T05:53:48.979Z,99999.88
2022-07-31T05:56:19.355Z,100001.52
2022-07-31T05:58:49.791Z,100001.52
2022-07-31T06:01:21.202Z,99998.05
2022-07-31T06:03:52.595Z,99993.75
2022-07-31T06:06:23.218Z,99983.52
2022-07-31T06:08:53.735Z,99983.59
2022-07-31T06:11:24.936Z,99997.56
2022-07-31T06:13:55.336Z,99984.48
2022-07-31T06:16:25.773Z,99980.95
2022-07-31T06:18:56.216Z,99980.95
2022-07-31T06:21:30.518Z,99976.59
2022-07-31T06:23:58.958Z,99971.45
2022-07-31T06:26:29.353Z,99969.18
2022-07-31T06:28:59.924Z,99977.72
2022-07-31T06:31:30.666Z,99972.80
2022-07-31T06:34:01.019Z,99972.80
2022-07-31T06:36:31.605Z,99970.59
2022-07-31T06:39:02.012Z,99970.59
2022-07-31T06:41:32.869Z,99968.47
2022-07-31T06:44:03.396Z,99954.69
2022-07-31T06:46:34.465Z,99955.82
2022-07-31T06:49:08.697Z,99961.39
2022-07-31T06:51:39.342Z,99961.39
2022-07-31T06:54:14.769Z,99959.25
2022-07-31T06:56:47.257Z,99954.78
2022-07-31T06:59:39.263Z,99949.72
2022-07-31T07:01:55.988Z,99953.00
2022-07-31T07:05:04.950Z,99948.25
2022-07-31T07:06:58.855Z,99952.11
2022-07-31T07:10:06.628Z,99952.97
2022-07-31T07:12:31.499Z,99953.97
2022-07-31T07:15:03.430Z,99946.53
2022-07-31T07:17:34.173Z,99946.53
2022-07-31T07:23:09.456Z,99952.06
2022-07-31T07:25:43.742Z,99947.64
2022-07-31T07:28:31.209Z,99935.09
2022-07-31T07:30:51.602Z,99942.47
2022-07-31T07:33:40.753Z,99941.03
2022-07-31T07:35:58.360Z,99936.51
2022-07-31T07:38:31.926Z,99936.51
2022-07-31T07:41:04.136Z,99948.88
2022-07-31T07:43:34.473Z,99943.89
2022-07-31T07:46:04.834Z,99947.27
2022-07-31T07:48:37.423Z,99945.39
2022-07-31T07:51:07.963Z,99948.04
2022-07-31T07:53:39.667Z,99958.31
2022-07-31T07:56:11.775Z,99948.73
2022-07-31T07:58:51.020Z,99948.73
2022-07-31T08:01:23.598Z,99951.00
2022-07-31T08:03:54.043Z,99942.66
2022-07-31T08:06:24.521Z,99944.34
2022-07-31T08:09:03.595Z,99937.41
2022-07-31T08:11:38.964Z,99934.81
2022-07-31T08:14:09.473Z,99938.92
2022-07-31T08:16:39.995Z,99938.92
2022-07-31T08:19:10.318Z,99922.05
2022-07-31T08:21:41.363Z,99929.27
2022-07-31T08:24:11.747Z,99929.27
2022-07-31T08:26:42.234Z,99924.51
2022-07-31T08:29:15.608Z,99924.51
2022-07-31T08:31:49.740Z,99911.79
2022-07-31T08:34:31.510Z,99911.79
2022-07-31T08:36:54.670Z,99920.61
2022-07-31T08:39:25.097Z,99920.61
2022-07-31T08:41:55.626Z,99911.57
2022-07-31T08:44:30.938Z,99889.91
2022-07-31T08:47:05.088Z,99905.06
2022-07-31T08:49:45.279Z,99903.04
2022-07-31T08:52:25.002Z,99903.04
2022-07-31T08:54:55.835Z,99890.67
2022-07-31T08:57:26.337Z,99890.67
2022-07-31T08:59:56.846Z,99891.07
2022-07-31T09:02:27.190Z,99884.96
2022-07-31T09:04:58.160Z,99892.52
2022-07-31T09:07:29.802Z,99893.81
2022-07-31T09:10:04.639Z,99893.81
2022-07-31T09:12:37.282Z,99865.37
2022-07-31T09:15:30.602Z,99865.37
2022-07-31T09:18:02.466Z,99876.84
2022-07-31T09:20:33.005Z,99870.42
2022-07-31T09:23:10.351Z,99870.42
2022-07-31T09:25:59.681Z,99866.16
2022-07-31T09:28:48.934Z,99866.16
2022-07-31T09:31:23.781Z,99873.27
2022-07-31T09:33:54.635Z,99863.13
2022-07-31T09:36:25.523Z,99861.28
2022-07-31T09:38:56.720Z,99868.53
2022-07-31T09:42:00.184Z,99865.13
2022-07-31T09:44:01.737Z,99865.13
2022-07-31T09:46:43.387Z,99864.67
2022-07-31T09:49:14.756Z,99859.23
2022-07-31T09:51:47.053Z,99859.23
2022-07-31T09:54:22.271Z,99866.00
2022-07-31T09:56:52.687Z,99866.00
2022-07-31T09:59:23.940Z,99856.33
2022-07-31T10:01:55.832Z,99856.33
2022-07-31T10:04:26.362Z,99851.38
2022-07-31T10:06:57.547Z,99853.98
2022-07-31T10:09:30.920Z,99853.98
2022-07-31T10:12:05.212Z,99854.27
2022-07-31T10:14:38.161Z,99849.90
2022-07-31T10:17:13.700Z,99849.90
2022-07-31T10:19:48.688Z,99843.95
2022-07-31T10:22:23.423Z,99829.86
2022-07-31T10:24:55.366Z,99820.35
2022-07-31T10:28:18.509Z,99828.89
2022-07-31T10:30:14.389Z,99828.89
2022-07-31T10:32:45.885Z,99825.61
2022-07-31T10:35:17.631Z,99823.62
2022-07-31T10:38:08.150Z,99817.39
2022-07-31T10:40:44.433Z,99818.18
2022-07-31T10:43:29.862Z,99812.94
2022-07-31T10:46:00.319Z,99812.94
2022-07-31T10:48:30.744Z,99815.94
2022-07-31T10:51:03.816Z,99795.99
2022-07-31T10:53:50.592Z,99800.70
2022-07-31T10:56:14.357Z,99800.70
2022-07-31T10:58:52.306Z,99808.89
2022-07-31T11:01:24.204Z,99794.61
2022-07-31T11:06:52.140Z,99786.56
2022-07-31T11:09:27.063Z,99797.13
2022-07-31T11:11:57.450Z,99792.42
2022-07-31T11:14:38.699Z,99796.80
2022-07-31T11:17:09.163Z,99780.66
2022-07-31T11:19:43.850Z,99793.16
2022-07-31T11:22:32.053Z,99783.84
2022-07-31T11:24:55.727Z,99783.84
2022-07-31T11:27:34.669Z,99785.17
2022-07-31T11:30:12.617Z,99784.49
2022-07-31T11:32:40.810Z,99783.00
2022-07-31T11:35:11.765Z,99776.47
2022-07-31T11:37:56.326Z,99779.77
2022-07-31T11:40:16.374Z,99774.47
2022-07-31T11:43:04.619Z,99773.96
2022-07-31T11:45:20.438Z,99778.82
2022-07-31T11:48:12.086Z,99778.82
2022-07-31T11:50:22.898Z,99773.98
2022-07-31T11:52:56.058Z,99762.13
2022-07-31T11:55:26.606Z,99754.48
2022-07-31T11:57:58.326Z,99759.08
2022-07-31T12:00:31.580Z,99761.17
2022-07-31T12:03:02.367Z,99762.98
2022-07-31T12:05:37.745Z,99758.68
2022-07-31T12:08:14.250Z,99739.39
2022-07-31T12:10:46.337Z,99756.15
2022-07-31T15:11:12.956Z,99556.95
2022-07-31T15:13:43.416Z,99556.95
2022-07-31T15:16:13.977Z,99552.45
2022-07-31T15:18:44.215Z,99551.84
2022-07-31T15:21:15.561Z,99548.48
2022-07-31T15:23:45.944Z,99551.69
2022-07-31T15:26:16.157Z,99546.63
2022-07-31T15:28:46.485Z,99546.63
2022-07-31T15:31:16.769Z,99550.92
2022-07-31T15:33:47.092Z,99548.55
2022-07-31T15:36:17.831Z,99548.55
2022-07-31T15:38:48.352Z,99547.28
2022-07-31T15:41:19.261Z,99550.17
2022-07-31T15:43:49.535Z,99550.17
2022-07-31T15:46:19.808Z,99542.28
2022-07-31T15:48:50.219Z,99541.70
2022-07-31T15:51:20.369Z,99541.70
2022-07-31T15:53:50.795Z,99551.45
2022-07-31T15:56:21.199Z,99542.38
2022-07-31T15:58:53.884Z,99547.88
2022-07-31T16:01:23.581Z,99547.88
2022-07-31T16:03:53.954Z,99538.05
2022-07-31T16:06:28.148Z,99538.05
2022-07-31T16:08:59.087Z,99543.58
2022-07-31T16:12:05.518Z,99545.52
2022-07-31T16:14:01.294Z,99545.52
2022-07-31T16:16:32.116Z,99537.41
2022-07-31T16:19:03.098Z,99545.47
2022-07-31T16:21:33.597Z,99543.30
2022-07-31T16:24:05.698Z,99543.30
2022-07-31T16:26:36.089Z,99548.45
2022-07-31T16:29:07.006Z,99548.45
2022-07-31T16:31:39.250Z,99551.53
2022-07-31T16:34:09.755Z,99549.91
2022-07-31T16:36:40.487Z,99549.91
2022-07-31T16:39:20.345Z,99548.69
2022-07-31T16:41:54.378Z,99550.66
2022-07-31T16:44:14.906Z,99552.50
2022-07-31T16:46:45.213Z,99552.50
2022-07-31T16:49:35.394Z,99552.98
2022-07-31T16:51:48.232Z,99551.66
2022-07-31T16:54:19.085Z,99551.66
2022-07-31T16:56:49.520Z,99554.14
2022-07-31T16:59:19.832Z,99552.87
2022-07-31T17:01:57.154Z,99559.07
2022-07-31T17:04:23.540Z,99561.89
2022-07-31T17:06:53.768Z,99561.89
2022-07-31T17:09:24.302Z,99558.95
2022-07-31T17:11:56.506Z,99558.95
2022-07-31T17:14:28.198Z,99558.70
2022-07-31T17:16:59.119Z,99563.64
2022-07-31T17:19:41.234Z,99562.73
2022-07-31T17:22:02.639Z,99562.73
2022-07-31T17:24:34.660Z,99559.08
2022-07-31T17:27:08.111Z,99571.17
2022-07-31T17:29:40.817Z,99569.78
2022-07-31T17:32:12.594Z,99569.78
2022-07-31T17:34:43.519Z,99575.81
2022-07-31T17:37:13.814Z,99573.42
2022-07-31T17:39:47.741Z,99570.94
2022-07-31T17:42:23.539Z,99570.94
2022-07-31T17:44:55.047Z,99571.13
2022-07-31T17:47:23.653Z,99575.83
2022-07-31T17:49:54.333Z,99577.26
2022-07-31T17:52:24.609Z,99582.26
2022-07-31T17:54:54.924Z,99582.26
2022-07-31T17:57:25.313Z,99582.98
2022-07-31T17:59:55.454Z,99587.55
2022-07-31T18:02:30.231Z,99587.55
2022-07-31T18:05:02.988Z,99585.53
2022-07-31T18:07:33.819Z,99585.53
2022-07-31T18:10:08.745Z,99587.38
2022-07-31T18:12:59.987Z,99589.72
2022-07-31T18:15:35.827Z,99589.72
2022-07-31T18:18:06.330Z,99587.16
2022-07-31T18:20:39.326Z,99582.09
2022-07-31T18:23:11.074Z,99582.09
2022-07-31T18:25:43.125Z,99582.05
2022-07-31T18:28:13.533Z,99587.86
2022-07-31T18:30:45.545Z,99586.94
2022-07-31T18:33:17.589Z,99586.94
2022-07-31T18:35:48.277Z,99584.00
2022-07-31T18:38:20.228Z,99586.56
2022-07-31T18:40:51.604Z,99586.56
2022-07-31T18:43:22.427Z,99587.09
2022-07-31T18:45:52.743Z,99586.28
2022-07-31T18:48:24.439Z,99584.16
2022-07-31T18:51:01.572Z,99582.22
2022-07-31T18:53:28.673Z,99582.22
2022-07-31T18:56:03.869Z,99573.86
2022-07-31T18:58:38.210Z,99575.28
2022-07-31T19:01:11.136Z,99582.61
2022-07-31T19:03:41.994Z,99580.98
2022-07-31T19:06:13.643Z,99581.73
2022-07-31T19:08:45.191Z,99581.09
2022-07-31T19:11:15.495Z,99587.33
2022-07-31T19:13:48.474Z,99582.84
2022-07-31T19:16:18.841Z,99589.54
2022-07-31T19:18:50.911Z,99581.73
2022-07-31T19:21:41.590Z,99581.73
2022-07-31T19:23:53.585Z,99579.44
2022-07-31T19:26:25.155Z,99581.87
2022-07-31T19:28:56.073Z,99581.87
2022-07-31T19:31:26.504Z,99570.49
2022-07-31T19:33:58.259Z,99571.14
2022-07-31T19:36:28.473Z,99573.24
2022-07-31T19:39:00.373Z,99576.13
2022-07-31T19:41:30.603Z,99576.13
2022-07-31T19:44:01.096Z,99568.48
2022-07-31T19:46:33.070Z,99570.55
2022-07-31T19:49:03.760Z,99564.91
2022-07-31T19:51:34.484Z,99564.91
2022-07-31T19:54:04.794Z,99570.45
2022-07-31T19:56:35.436Z,99563.39
2022-07-31T19:59:06.871Z,99555.40
2022-07-31T20:01:40.619Z,99548.33
2022-07-31T20:04:11.448Z,99554.48
2022-07-31T20:06:44.794Z,99554.48
2022-07-31T20:09:16.553Z,99553.33
2022-07-31T20:11:48.941Z,99553.33
2022-07-31T20:14:20.495Z,99558.66
2022-07-31T20:16:51.308Z,99558.06
2022-07-31T20:19:23.276Z,99546.36
2022-07-31T20:21:53.520Z,99552.92
2022-07-31T20:24:24.363Z,99556.45
2022-07-31T20:26:55.179Z,99550.16
2022-07-31T20:29:25.736Z,99553.38
2022-07-31T20:31:55.982Z,99554.16
2022-07-31T20:34:26.480Z,99554.16
2022-07-31T20:36:56.786Z,99544.12
2022-07-31T20:39:34.029Z,99542.00
2022-07-31T20:42:02.158Z,99542.00
2022-07-31T20:44:34.447Z,99534.98
2022-07-31T20:47:06.130Z,99533.09
2022-07-31T20:49:37.458Z,99533.09
2022-07-31T20:52:08.179Z,99534.97
2022-07-31T20:54:40.389Z,99522.64
2022-07-31T20:57:11.915Z,99522.64
2022-07-31T20:59:42.298Z,99521.11
2022-07-31T21:02:12.748Z,99524.11
2022-07-31T21:04:43.121Z,99517.77
2022-07-31T21:07:13.867Z,99517.08
2022-07-31T21:09:44.511Z,99518.42
2022-07-31T21:12:14.851Z,99518.42
2022-07-31T21:14:45.444Z,99513.28
2022-07-31T21:17:15.781Z,99505.27
2022-07-31T21:19:46.149Z,99501.08
2022-07-31T21:22:16.430Z,99501.08
2022-07-31T21:24:47.582Z,99497.34
2022-07-31T21:27:18.294Z,99499.11
2022-07-31T21:29:55.071Z,99489.75
2022-07-31T21:32:22.744Z,99489.75
2022-07-31T21:34:53.935Z,99487.73
2022-07-31T21:37:25.405Z,99487.73
2022-07-31T21:39:57.354Z,99492.64
2022-07-31T21:42:27.803Z,99483.02
2022-07-31T21:44:58.906Z,99476.91
2022-07-31T21:47:52.700Z,99482.78
2022-07-31T21:50:06.370Z,99478.39
2022-07-31T21:52:37.187Z,99478.39
2022-07-31T21:55:07.710Z,99478.76
2022-07-31T21:57:59.144Z,99478.76
2022-07-31T22:00:14.153Z,99490.61
2022-07-31T22:02:44.492Z,99490.61
2022-07-31T22:05:14.777Z,99488.34
2022-07-31T22:07:48.781Z,99489.38
2022-07-31T22:10:20.115Z,99486.77
2022-07-31T22:12:50.562Z,99479.14
2022-07-31T22:15:20.824Z,99479.14
2022-07-31T22:17:51.367Z,99473.48
2022-07-31T22:20:22.018Z,99471.16
2022-07-31T22:22:52.873Z,99471.77
2022-07-31T22:25:23.731Z,99462.19
2022-07-31T22:27:54.185Z,99462.19
2022-07-31T22:30:27.246Z,99464.66
2022-07-31T22:33:00.544Z,99460.78
2022-07-31T22:35:31.188Z,99459.47
2022-07-31T22:38:01.816Z,99459.47
2022-07-31T22:40:33.100Z,99463.98
2022-07-31T22:43:04.290Z,99454.72
2022-07-31T22:45:36.632Z,99452.19
2022-07-31T22:48:13.977Z,99452.19
2022-07-31T22:50:44.314Z,99450.94
2022-07-31T22:53:14.572Z,99452.13
2022-07-31T22:55:45.943Z,99449.02
2022-07-31T22:58:16.262Z,99447.13
2022-07-31T23:00:48.371Z,99446.70
2022-07-31T23:03:18.605Z,99439.86
2022-07-31T23:06:12.176Z,99439.40
2022-07-31T23:08:20.882Z,99437.27
2022-07-31T23:10:51.345Z,99435.59
2022-07-31T23:13:21.704Z,99440.47
2022-07-31T23:15:51.898Z,99440.70
2022-07-31T23:18:22.473Z,99440.70
2022-07-31T23:20:52.919Z,99438.73
2022-07-31T23:23:23.182Z,99442.69
2022-07-31T23:25:53.477Z,99441.27
2022-07-31T23:28:24.168Z,99440.05
2022-07-31T23:30:54.600Z,99432.58
2022-07-31T23:33:24.943Z,99432.58
2022-07-31T23:35:55.219Z,99440.88
2022-07-31T23:38:25.872Z,99440.98
2022-07-31T23:40:56.269Z,99443.82
2022-07-31T23:43:26.767Z,99438.38
2022-07-31T23:45:57.217Z,99448.69
2022-07-31T23:48:29.886Z,99444.49
2022-07-31T23:51:00.407Z,99444.61
2022-07-31T23:53:31.330Z,99445.47
2022-07-31T23:56:01.594Z,99436.42
2022-07-31T23:58:32.555Z,99436.42
